sensor_id;sensor_type;location;lat;lon;timestamp;temperature;humidity
11704;DHT22;5908;51.354;7.458;2023-04-01T00:00:59;11.20;99.90
11704;DHT22;5908;51.354;7.458;2023-04-01T00:03:27;11.20;99.90
11704;DHT22;5908;51.354;7.458;2023-04-01T00:05:55;11.10;99.90
11704;DHT22;5908;51.354;7.458;2023-04-01T00:08:23;11.10;99.90
11704;DHT22;5908;51.354;7.458;2023-04-01T00:10:50;11.10;99.90
11704;DHT22;5908;51.354;7.458;2023-04-01T00:13:17;11.10;99.90
11704;DHT22;5908;51.354;7.458;2023-04-01T00:15:44;11.00;99.90
11704;DHT22;5908;51.354;7.458;2023-04-01T00:18:12;11.00;99.90
11704;DHT22;5908;51.354;7.458;2023-04-01T00:20:39;11.00;99.90
11704;DHT22;5908;51.354;7.458;2023-04-01T00:23:09;10.90;99.90
11704;DHT22;5908;51.354;7.458;2023-04-01T00:25:37;10.90;99.90
11704;DHT22;5908;51.354;7.458;2023-04-01T00:28:04;10.90;99.90
11704;DHT22;5908;51.354;7.458;2023-04-01T00:30:31;10.90;99.90
11704;DHT22;5908;51.354;7.458;2023-04-01T00:32:58;10.90;99.90
11704;DHT22;5908;51.354;7.458;2023-04-01T00:35:25;10.90;99.90
11704;DHT22;5908;51.354;7.458;2023-04-01T00:37:51;10.90;99.90
11704;DHT22;5908;51.354;7.458;2023-04-01T00:40:25;10.90;99.90
11704;DHT22;5908;51.354;7.458;2023-04-01T00:42:53;10.90;99.90
11704;DHT22;5908;51.354;7.458;2023-04-01T00:45:35;10.90;99.90
11704;DHT22;5908;51.354;7.458;2023-04-01T00:48:07;10.90;99.90
11704;DHT22;5908;51.354;7.458;2023-04-01T00:50:35;10.80;99.90
11704;DHT22;5908;51.354;7.458;2023-04-01T00:53:04;10.80;99.90
11704;DHT22;5908;51.354;7.458;2023-04-01T00:55:33;10.80;99.90
11704;DHT22;5908;51.354;7.458;2023-04-01T00:58:05;10.80;99.90
11704;DHT22;5908;51.354;7.458;2023-04-01T01:00:34;10.80;99.90
11704;DHT22;5908;51.354;7.458;2023-04-01T01:03:02;10.80;99.90
11704;DHT22;5908;51.354;7.458;2023-04-01T01:05:37;10.80;99.90
11704;DHT22;5908;51.354;7.458;2023-04-01T01:08:12;10.80;99.90
11704;DHT22;5908;51.354;7.458;2023-04-01T01:10:42;10.80;99.90
11704;DHT22;5908;51.354;7.458;2023-04-01T01:13:18;10.70;99.90
11704;DHT22;5908;51.354;7.458;2023-04-01T01:15:53;10.80;99.90
11704;DHT22;5908;51.354;7.458;2023-04-01T01:18:27;10.80;99.90
11704;DHT22;5908;51.354;7.458;2023-04-01T01:21:22;10.80;99.90
11704;DHT22;5908;51.354;7.458;2023-04-01T01:24:22;10.80;99.90
11704;DHT22;5908;51.354;7.458;2023-04-01T01:26:59;10.70;99.90
11704;DHT22;5908;51.354;7.458;2023-04-01T01:29:40;10.80;99.90
11704;DHT22;5908;51.354;7.458;2023-04-01T01:32:16;10.80;99.90
11704;DHT22;5908;51.354;7.458;2023-04-01T01:34:50;10.80;99.90
11704;DHT22;5908;51.354;7.458;2023-04-01T01:37:24;10.80;99.90
11704;DHT22;5908;51.354;7.458;2023-04-01T01:39:55;10.70;99.90
11704;DHT22;5908;51.354;7.458;2023-04-01T01:42:24;10.70;99.90
11704;DHT22;5908;51.354;7.458;2023-04-01T01:44:54;10.70;99.90
11704;DHT22;5908;51.354;7.458;2023-04-01T01:47:22;10.60;99.90
11704;DHT22;5908;51.354;7.458;2023-04-01T01:49:51;10.60;99.90
11704;DHT22;5908;51.354;7.458;2023-04-01T01:52:19;10.60;99.90
11704;DHT22;5908;51.354;7.458;2023-04-01T01:54:49;10.60;99.90
11704;DHT22;5908;51.354;7.458;2023-04-01T01:57:17;10.50;99.90
11704;DHT22;5908;51.354;7.458;2023-04-01T01:59:47;10.60;99.90
11704;DHT22;5908;51.354;7.458;2023-04-01T02:02:14;10.60;99.90
11704;DHT22;5908;51.354;7.458;2023-04-01T02:04:44;10.60;99.90
11704;DHT22;5908;51.354;7.458;2023-04-01T02:07:16;10.60;99.90
11704;DHT22;5908;51.354;7.458;2023-04-01T02:09:45;10.60;99.90
11704;DHT22;5908;51.354;7.458;2023-04-01T02:12:15;10.50;99.90
11704;DHT22;5908;51.354;7.458;2023-04-01T02:14:47;10.50;99.90
11704;DHT22;5908;51.354;7.458;2023-04-01T02:17:17;10.50;99.90
11704;DHT22;5908;51.354;7.458;2023-04-01T02:19:54;10.50;99.90
11704;DHT22;5908;51.354;7.458;2023-04-01T02:22:24;10.50;99.90
11704;DHT22;5908;51.354;7.458;2023-04-01T02:24:54;10.50;99.90
11704;DHT22;5908;51.354;7.458;2023-04-01T02:27:25;10.40;99.90
11704;DHT22;5908;51.354;7.458;2023-04-01T02:29:52;10.40;99.90
11704;DHT22;5908;51.354;7.458;2023-04-01T02:32:20;10.40;99.90
11704;DHT22;5908;51.354;7.458;2023-04-01T02:34:48;10.40;99.90
11704;DHT22;5908;51.354;7.458;2023-04-01T02:37:15;10.40;99.90
11704;DHT22;5908;51.354;7.458;2023-04-01T02:39:42;10.40;99.90
11704;DHT22;5908;51.354;7.458;2023-04-01T02:42:09;10.40;99.90
11704;DHT22;5908;51.354;7.458;2023-04-01T02:44:37;10.50;99.90
11704;DHT22;5908;51.354;7.458;2023-04-01T02:47:04;10.50;99.90
11704;DHT22;5908;51.354;7.458;2023-04-01T02:49:31;10.40;99.90
11704;DHT22;5908;51.354;7.458;2023-04-01T02:51:58;10.50;99.90
11704;DHT22;5908;51.354;7.458;2023-04-01T02:54:25;10.40;99.90
11704;DHT22;5908;51.354;7.458;2023-04-01T02:56:51;10.40;99.90
11704;DHT22;5908;51.354;7.458;2023-04-01T02:59:18;10.40;99.90
11704;DHT22;5908;51.354;7.458;2023-04-01T03:01:46;10.40;99.90
11704;DHT22;5908;51.354;7.458;2023-04-01T03:04:13;10.40;99.90
11704;DHT22;5908;51.354;7.458;2023-04-01T03:06:39;10.40;99.90
11704;DHT22;5908;51.354;7.458;2023-04-01T03:09:06;10.40;99.90
11704;DHT22;5908;51.354;7.458;2023-04-01T03:11:33;10.40;99.90
11704;DHT22;5908;51.354;7.458;2023-04-01T03:14:00;10.50;99.90
11704;DHT22;5908;51.354;7.458;2023-04-01T03:16:27;10.50;99.90
11704;DHT22;5908;51.354;7.458;2023-04-01T03:18:55;10.40;99.90
11704;DHT22;5908;51.354;7.458;2023-04-01T03:21:24;10.40;99.90
11704;DHT22;5908;51.354;7.458;2023-04-01T03:23:51;10.30;99.90
11704;DHT22;5908;51.354;7.458;2023-04-01T03:26:18;10.30;99.90
11704;DHT22;5908;51.354;7.458;2023-04-01T03:28:45;10.30;99.90
11704;DHT22;5908;51.354;7.458;2023-04-01T03:31:12;10.30;99.90
11704;DHT22;5908;51.354;7.458;2023-04-01T03:33:40;10.20;99.90
11704;DHT22;5908;51.354;7.458;2023-04-01T03:36:08;10.30;99.90
11704;DHT22;5908;51.354;7.458;2023-04-01T03:38:37;10.30;99.90
11704;DHT22;5908;51.354;7.458;2023-04-01T03:41:04;10.30;99.90
11704;DHT22;5908;51.354;7.458;2023-04-01T03:43:32;10.30;99.90
11704;DHT22;5908;51.354;7.458;2023-04-01T03:45:58;10.30;99.90
11704;DHT22;5908;51.354;7.458;2023-04-01T03:48:25;10.30;99.90
11704;DHT22;5908;51.354;7.458;2023-04-01T03:50:53;10.30;99.90
11704;DHT22;5908;51.354;7.458;2023-04-01T03:53:22;10.40;99.90
11704;DHT22;5908;51.354;7.458;2023-04-01T03:55:48;10.40;99.90
11704;DHT22;5908;51.354;7.458;2023-04-01T03:58:16;10.30;99.90
11704;DHT22;5908;51.354;7.458;2023-04-01T04:00:43;10.30;99.90
11704;DHT22;5908;51.354;7.458;2023-04-01T04:03:10;10.30;99.90
11704;DHT22;5908;51.354;7.458;2023-04-01T04:05:37;10.20;99.90
11704;DHT22;5908;51.354;7.458;2023-04-01T04:08:04;10.30;99.90
11704;DHT22;5908;51.354;7.458;2023-04-01T04:10:32;10.30;99.90
11704;DHT22;5908;51.354;7.458;2023-04-01T04:13:00;10.30;99.90
11704;DHT22;5908;51.354;7.458;2023-04-01T04:15:27;10.30;99.90
11704;DHT22;5908;51.354;7.458;2023-04-01T04:17:54;10.30;99.90
11704;DHT22;5908;51.354;7.458;2023-04-01T04:20:20;10.30;99.90
11704;DHT22;5908;51.354;7.458;2023-04-01T04:22:47;10.30;99.90
11704;DHT22;5908;51.354;7.458;2023-04-01T04:25:14;10.30;99.90
11704;DHT22;5908;51.354;7.458;2023-04-01T04:27:42;10.40;99.90
11704;DHT22;5908;51.354;7.458;2023-04-01T04:30:10;10.50;99.90
11704;DHT22;5908;51.354;7.458;2023-04-01T04:32:36;10.50;99.90
11704;DHT22;5908;51.354;7.458;2023-04-01T04:35:04;10.50;99.90
11704;DHT22;5908;51.354;7.458;2023-04-01T04:37:31;10.40;99.90
11704;DHT22;5908;51.354;7.458;2023-04-01T04:39:58;10.30;99.90
11704;DHT22;5908;51.354;7.458;2023-04-01T04:42:25;10.30;99.90
11704;DHT22;5908;51.354;7.458;2023-04-01T04:44:53;10.40;99.90
11704;DHT22;5908;51.354;7.458;2023-04-01T04:47:20;10.50;99.90
11704;DHT22;5908;51.354;7.458;2023-04-01T04:49:47;10.40;99.90
11704;DHT22;5908;51.354;7.458;2023-04-01T04:52:13;10.40;99.90
11704;DHT22;5908;51.354;7.458;2023-04-01T04:54:40;10.40;99.90
11704;DHT22;5908;51.354;7.458;2023-04-01T04:57:07;10.30;99.90
11704;DHT22;5908;51.354;7.458;2023-04-01T04:59:33;10.40;99.90
11704;DHT22;5908;51.354;7.458;2023-04-01T05:02:02;10.40;99.90
11704;DHT22;5908;51.354;7.458;2023-04-01T05:04:29;10.40;99.90
11704;DHT22;5908;51.354;7.458;2023-04-01T05:06:55;10.40;99.90
11704;DHT22;5908;51.354;7.458;2023-04-01T05:09:22;10.50;99.90
11704;DHT22;5908;51.354;7.458;2023-04-01T05:11:49;10.40;99.90
11704;DHT22;5908;51.354;7.458;2023-04-01T05:14:16;10.40;99.90
11704;DHT22;5908;51.354;7.458;2023-04-01T05:16:42;10.40;99.90
11704;DHT22;5908;51.354;7.458;2023-04-01T05:19:11;10.40;99.90
11704;DHT22;5908;51.354;7.458;2023-04-01T05:21:37;10.50;99.90
11704;DHT22;5908;51.354;7.458;2023-04-01T05:24:08;10.40;99.90
11704;DHT22;5908;51.354;7.458;2023-04-01T05:26:35;10.50;99.90
11704;DHT22;5908;51.354;7.458;2023-04-01T05:29:02;10.50;99.90
11704;DHT22;5908;51.354;7.458;2023-04-01T05:31:29;10.50;99.90
11704;DHT22;5908;51.354;7.458;2023-04-01T05:33:56;10.50;99.90
11704;DHT22;5908;51.354;7.458;2023-04-01T05:36:24;10.50;99.90
11704;DHT22;5908;51.354;7.458;2023-04-01T05:38:54;10.50;99.90
11704;DHT22;5908;51.354;7.458;2023-04-01T05:41:21;10.50;99.90
11704;DHT22;5908;51.354;7.458;2023-04-01T05:43:47;10.50;99.90
11704;DHT22;5908;51.354;7.458;2023-04-01T05:46:14;10.50;99.90
11704;DHT22;5908;51.354;7.458;2023-04-01T05:48:41;10.50;99.90
11704;DHT22;5908;51.354;7.458;2023-04-01T05:51:12;10.60;99.90
11704;DHT22;5908;51.354;7.458;2023-04-01T05:53:40;10.50;99.90
11704;DHT22;5908;51.354;7.458;2023-04-01T05:56:07;10.50;99.90
11704;DHT22;5908;51.354;7.458;2023-04-01T05:58:35;10.60;99.90
11704;DHT22;5908;51.354;7.458;2023-04-01T06:01:03;10.70;99.90
11704;DHT22;5908;51.354;7.458;2023-04-01T06:03:30;10.70;99.90
11704;DHT22;5908;51.354;7.458;2023-04-01T06:05:56;10.70;99.90
11704;DHT22;5908;51.354;7.458;2023-04-01T06:08:24;10.80;99.90
11704;DHT22;5908;51.354;7.458;2023-04-01T06:11:04;10.80;99.90
11704;DHT22;5908;51.354;7.458;2023-04-01T06:13:43;10.90;99.90
11704;DHT22;5908;51.354;7.458;2023-04-01T06:16:22;10.90;99.90
11704;DHT22;5908;51.354;7.458;2023-04-01T06:19:02;10.90;99.90
11704;DHT22;5908;51.354;7.458;2023-04-01T06:21:49;11.00;99.90
11704;DHT22;5908;51.354;7.458;2023-04-01T06:24:36;11.00;99.90
11704;DHT22;5908;51.354;7.458;2023-04-01T06:27:14;11.00;99.90
11704;DHT22;5908;51.354;7.458;2023-04-01T06:29:57;11.00;99.90
11704;DHT22;5908;51.354;7.458;2023-04-01T06:32:53;11.10;99.90
11704;DHT22;5908;51.354;7.458;2023-04-01T06:35:39;11.10;99.90
11704;DHT22;5908;51.354;7.458;2023-04-01T06:38:20;11.20;99.90
11704;DHT22;5908;51.354;7.458;2023-04-01T06:41:09;11.30;99.90
11704;DHT22;5908;51.354;7.458;2023-04-01T06:43:47;11.30;99.90
11704;DHT22;5908;51.354;7.458;2023-04-01T06:46:19;11.30;99.90
11704;DHT22;5908;51.354;7.458;2023-04-01T06:49:11;11.40;99.90
11704;DHT22;5908;51.354;7.458;2023-04-01T06:51:48;11.40;99.90
11704;DHT22;5908;51.354;7.458;2023-04-01T06:54:20;11.50;99.90
11704;DHT22;5908;51.354;7.458;2023-04-01T06:56:50;11.50;99.90
11704;DHT22;5908;51.354;7.458;2023-04-01T06:59:25;11.40;99.90
11704;DHT22;5908;51.354;7.458;2023-04-01T07:01:54;11.40;99.90
11704;DHT22;5908;51.354;7.458;2023-04-01T07:04:25;11.40;99.90
11704;DHT22;5908;51.354;7.458;2023-04-01T07:06:58;11.50;99.90
11704;DHT22;5908;51.354;7.458;2023-04-01T07:09:31;11.60;99.90
11704;DHT22;5908;51.354;7.458;2023-04-01T07:12:01;11.60;99.90
11704;DHT22;5908;51.354;7.458;2023-04-01T07:14:33;11.70;99.90
11704;DHT22;5908;51.354;7.458;2023-04-01T07:17:04;11.70;99.90
11704;DHT22;5908;51.354;7.458;2023-04-01T07:19:36;11.70;99.90
11704;DHT22;5908;51.354;7.458;2023-04-01T07:22:14;11.60;99.90
11704;DHT22;5908;51.354;7.458;2023-04-01T07:24:44;11.60;99.90
11704;DHT22;5908;51.354;7.458;2023-04-01T07:27:13;11.60;99.90
11704;DHT22;5908;51.354;7.458;2023-04-01T07:29:41;11.70;99.90
11704;DHT22;5908;51.354;7.458;2023-04-01T07:32:22;11.70;99.90
11704;DHT22;5908;51.354;7.458;2023-04-01T07:35:01;11.80;99.90
11704;DHT22;5908;51.354;7.458;2023-04-01T07:37:39;11.80;99.90
11704;DHT22;5908;51.354;7.458;2023-04-01T07:40:18;11.90;99.90
11704;DHT22;5908;51.354;7.458;2023-04-01T07:42:59;11.90;99.90
11704;DHT22;5908;51.354;7.458;2023-04-01T07:45:36;11.90;99.90
11704;DHT22;5908;51.354;7.458;2023-04-01T07:48:16;11.90;99.90
11704;DHT22;5908;51.354;7.458;2023-04-01T07:50:52;12.10;99.90
11704;DHT22;5908;51.354;7.458;2023-04-01T07:53:26;12.20;99.90
11704;DHT22;5908;51.354;7.458;2023-04-01T07:56:03;12.30;99.90
11704;DHT22;5908;51.354;7.458;2023-04-01T07:58:36;12.40;99.90
11704;DHT22;5908;51.354;7.458;2023-04-01T08:01:13;12.40;99.90
11704;DHT22;5908;51.354;7.458;2023-04-01T08:03:54;12.50;99.90
11704;DHT22;5908;51.354;7.458;2023-04-01T08:06:27;12.70;99.90
11704;DHT22;5908;51.354;7.458;2023-04-01T08:09:02;12.60;99.90
11704;DHT22;5908;51.354;7.458;2023-04-01T08:11:41;12.60;99.90
11704;DHT22;5908;51.354;7.458;2023-04-01T08:14:15;12.70;99.90
11704;DHT22;5908;51.354;7.458;2023-04-01T08:16:52;12.70;99.90
11704;DHT22;5908;51.354;7.458;2023-04-01T08:19:31;12.80;99.90
11704;DHT22;5908;51.354;7.458;2023-04-01T08:22:07;12.70;99.90
11704;DHT22;5908;51.354;7.458;2023-04-01T08:24:39;12.70;99.90
11704;DHT22;5908;51.354;7.458;2023-04-01T08:27:12;12.60;99.90
11704;DHT22;5908;51.354;7.458;2023-04-01T08:29:46;12.60;99.90
11704;DHT22;5908;51.354;7.458;2023-04-01T08:32:18;12.60;99.90
11704;DHT22;5908;51.354;7.458;2023-04-01T08:34:50;12.70;99.90
11704;DHT22;5908;51.354;7.458;2023-04-01T08:37:24;12.90;99.90
11704;DHT22;5908;51.354;7.458;2023-04-01T08:39:55;12.90;99.90
11704;DHT22;5908;51.354;7.458;2023-04-01T08:42:36;12.90;99.90
11704;DHT22;5908;51.354;7.458;2023-04-01T08:45:30;12.80;99.90
11704;DHT22;5908;51.354;7.458;2023-04-01T08:48:16;12.60;99.90
11704;DHT22;5908;51.354;7.458;2023-04-01T08:51:09;12.60;99.90
11704;DHT22;5908;51.354;7.458;2023-04-01T08:53:55;12.60;99.90
11704;DHT22;5908;51.354;7.458;2023-04-01T08:56:28;12.60;99.90
11704;DHT22;5908;51.354;7.458;2023-04-01T08:59:18;12.60;99.90
11704;DHT22;5908;51.354;7.458;2023-04-01T09:05:26;12.50;99.90
11704;DHT22;5908;51.354;7.458;2023-04-01T09:08:08;12.50;99.90
11704;DHT22;5908;51.354;7.458;2023-04-01T09:10:53;12.50;99.90
11704;DHT22;5908;51.354;7.458;2023-04-01T09:13:32;12.60;99.90
11704;DHT22;5908;51.354;7.458;2023-04-01T09:16:19;12.40;99.90
11704;DHT22;5908;51.354;7.458;2023-04-01T09:18:58;12.40;99.90
11704;DHT22;5908;51.354;7.458;2023-04-01T09:21:50;12.20;99.90
11704;DHT22;5908;51.354;7.458;2023-04-01T09:24:39;12.20;99.90
11704;DHT22;5908;51.354;7.458;2023-04-01T09:27:13;12.30;99.90
11704;DHT22;5908;51.354;7.458;2023-04-01T09:35:46;12.50;99.90
11704;DHT22;5908;51.354;7.458;2023-04-01T09:38:21;12.50;99.90
11704;DHT22;5908;51.354;7.458;2023-04-01T09:40:55;12.60;99.90
11704;DHT22;5908;51.354;7.458;2023-04-01T09:43:27;12.70;99.90
11704;DHT22;5908;51.354;7.458;2023-04-01T09:46:11;12.70;99.90
11704;DHT22;5908;51.354;7.458;2023-04-01T09:49:02;12.80;99.90
11704;DHT22;5908;51.354;7.458;2023-04-01T09:51:37;12.80;99.90
11704;DHT22;5908;51.354;7.458;2023-04-01T09:54:17;12.70;99.90
11704;DHT22;5908;51.354;7.458;2023-04-01T09:57:13;12.70;99.90
11704;DHT22;5908;51.354;7.458;2023-04-01T10:12:23;12.80;99.90
11704;DHT22;5908;51.354;7.458;2023-04-01T10:15:21;12.90;99.90
11704;DHT22;5908;51.354;7.458;2023-04-01T10:24:56;13.10;99.90
11704;DHT22;5908;51.354;7.458;2023-04-01T10:28:09;13.00;99.90
11704;DHT22;5908;51.354;7.458;2023-04-01T10:34:16;12.80;99.90
11704;DHT22;5908;51.354;7.458;2023-04-01T10:36:53;12.80;99.90
11704;DHT22;5908;51.354;7.458;2023-04-01T10:42:50;13.10;99.90
11704;DHT22;5908;51.354;7.458;2023-04-01T10:46:05;13.20;99.90
11704;DHT22;5908;51.354;7.458;2023-04-01T10:49:10;13.50;99.90
11704;DHT22;5908;51.354;7.458;2023-04-01T10:54:46;14.00;99.90
11704;DHT22;5908;51.354;7.458;2023-04-01T10:57:41;14.10;99.90
11704;DHT22;5908;51.354;7.458;2023-04-01T11:06:56;14.00;99.90
11704;DHT22;5908;51.354;7.458;2023-04-01T11:12:44;14.30;99.90
11704;DHT22;5908;51.354;7.458;2023-04-01T11:15:39;14.30;99.90
11704;DHT22;5908;51.354;7.458;2023-04-01T11:21:55;14.30;99.90
11704;DHT22;5908;51.354;7.458;2023-04-01T11:25:00;14.20;99.90
11704;DHT22;5908;51.354;7.458;2023-04-01T11:27:44;13.90;99.90
11704;DHT22;5908;51.354;7.458;2023-04-01T11:30:29;13.70;99.90
11704;DHT22;5908;51.354;7.458;2023-04-01T11:33:03;13.80;99.90
11704;DHT22;5908;51.354;7.458;2023-04-01T11:35:42;14.10;99.90
11704;DHT22;5908;51.354;7.458;2023-04-01T11:41:25;14.30;99.90
11704;DHT22;5908;51.354;7.458;2023-04-01T11:44:03;14.40;99.90
11704;DHT22;5908;51.354;7.458;2023-04-01T11:46:39;14.40;99.90
11704;DHT22;5908;51.354;7.458;2023-04-01T11:49:25;14.30;99.90
11704;DHT22;5908;51.354;7.458;2023-04-01T11:52:07;14.30;99.90
11704;DHT22;5908;51.354;7.458;2023-04-01T11:55:18;14.20;99.90
11704;DHT22;5908;51.354;7.458;2023-04-01T11:57:55;14.10;99.90
11704;DHT22;5908;51.354;7.458;2023-04-01T12:03:50;13.70;99.90
11704;DHT22;5908;51.354;7.458;2023-04-01T12:06:24;13.50;99.90
11704;DHT22;5908;51.354;7.458;2023-04-01T12:09:01;13.40;99.90
11704;DHT22;5908;51.354;7.458;2023-04-01T12:11:36;13.50;99.90
11704;DHT22;5908;51.354;7.458;2023-04-01T12:14:10;13.50;99.90
11704;DHT22;5908;51.354;7.458;2023-04-01T12:16:55;13.40;99.90
11704;DHT22;5908;51.354;7.458;2023-04-01T12:19:32;13.40;99.90
11704;DHT22;5908;51.354;7.458;2023-04-01T12:22:17;13.20;99.90
11704;DHT22;5908;51.354;7.458;2023-04-01T12:24:49;13.30;99.90
11704;DHT22;5908;51.354;7.458;2023-04-01T12:27:29;13.30;99.90
11704;DHT22;5908;51.354;7.458;2023-04-01T12:30:10;13.10;99.90
11704;DHT22;5908;51.354;7.458;2023-04-01T12:32:44;12.90;99.90
11704;DHT22;5908;51.354;7.458;2023-04-01T12:35:19;12.70;99.90
11704;DHT22;5908;51.354;7.458;2023-04-01T12:37:58;12.70;99.90
11704;DHT22;5908;51.354;7.458;2023-04-01T12:40:48;12.80;99.90
11704;DHT22;5908;51.354;7.458;2023-04-01T12:46:17;13.20;99.90
11704;DHT22;5908;51.354;7.458;2023-04-01T12:49:11;13.40;99.90
11704;DHT22;5908;51.354;7.458;2023-04-01T12:51:58;13.30;99.90
11704;DHT22;5908;51.354;7.458;2023-04-01T13:00:34;13.00;99.90
11704;DHT22;5908;51.354;7.458;2023-04-01T13:03:18;13.00;99.90
11704;DHT22;5908;51.354;7.458;2023-04-01T13:06:18;13.00;99.90
11704;DHT22;5908;51.354;7.458;2023-04-01T13:08:52;13.00;99.90
11704;DHT22;5908;51.354;7.458;2023-04-01T13:11:33;13.00;99.90
11704;DHT22;5908;51.354;7.458;2023-04-01T13:14:17;13.00;99.90
11704;DHT22;5908;51.354;7.458;2023-04-01T13:16:52;12.90;99.90
11704;DHT22;5908;51.354;7.458;2023-04-01T13:19:24;12.80;99.90
11704;DHT22;5908;51.354;7.458;2023-04-01T13:21:58;12.70;99.90
11704;DHT22;5908;51.354;7.458;2023-04-01T13:24:40;12.70;99.90
11704;DHT22;5908;51.354;7.458;2023-04-01T13:27:14;12.80;99.90
11704;DHT22;5908;51.354;7.458;2023-04-01T13:29:57;12.90;99.90
11704;DHT22;5908;51.354;7.458;2023-04-01T13:32:32;13.00;99.90
11704;DHT22;5908;51.354;7.458;2023-04-01T13:35:11;13.10;99.90
11704;DHT22;5908;51.354;7.458;2023-04-01T13:37:56;13.10;99.90
11704;DHT22;5908;51.354;7.458;2023-04-01T13:40:33;13.20;99.90
11704;DHT22;5908;51.354;7.458;2023-04-01T13:43:10;13.40;99.90
11704;DHT22;5908;51.354;7.458;2023-04-01T13:46:02;13.50;99.90
11704;DHT22;5908;51.354;7.458;2023-04-01T13:48:51;13.50;99.90
11704;DHT22;5908;51.354;7.458;2023-04-01T13:51:52;13.60;99.90
11704;DHT22;5908;51.354;7.458;2023-04-01T13:54:50;13.50;99.90
11704;DHT22;5908;51.354;7.458;2023-04-01T13:57:31;13.30;99.90
11704;DHT22;5908;51.354;7.458;2023-04-01T14:00:15;13.40;99.90
11704;DHT22;5908;51.354;7.458;2023-04-01T14:03:07;13.30;99.90
11704;DHT22;5908;51.354;7.458;2023-04-01T14:05:50;14.00;99.90
11704;DHT22;5908;51.354;7.458;2023-04-01T14:08:26;13.70;99.90
11704;DHT22;5908;51.354;7.458;2023-04-01T14:11:07;13.50;99.90
11704;DHT22;5908;51.354;7.458;2023-04-01T14:13:43;13.40;99.90
11704;DHT22;5908;51.354;7.458;2023-04-01T14:16:39;13.30;99.90
11704;DHT22;5908;51.354;7.458;2023-04-01T14:19:26;13.40;99.90
11704;DHT22;5908;51.354;7.458;2023-04-01T14:22:05;13.40;99.90
11704;DHT22;5908;51.354;7.458;2023-04-01T14:25:03;13.30;99.90
11704;DHT22;5908;51.354;7.458;2023-04-01T14:27:43;13.30;99.90
11704;DHT22;5908;51.354;7.458;2023-04-01T14:30:26;13.00;99.90
11704;DHT22;5908;51.354;7.458;2023-04-01T14:32:58;12.90;99.90
11704;DHT22;5908;51.354;7.458;2023-04-01T14:35:37;12.70;99.90
11704;DHT22;5908;51.354;7.458;2023-04-01T14:38:27;12.70;99.90
11704;DHT22;5908;51.354;7.458;2023-04-01T14:40:58;12.40;99.90
11704;DHT22;5908;51.354;7.458;2023-04-01T14:43:47;12.30;99.90
11704;DHT22;5908;51.354;7.458;2023-04-01T14:49:37;12.40;99.90
11704;DHT22;5908;51.354;7.458;2023-04-01T14:52:11;12.30;99.90
11704;DHT22;5908;51.354;7.458;2023-04-01T14:54:42;12.30;99.90
11704;DHT22;5908;51.354;7.458;2023-04-01T14:57:12;12.30;99.90
11704;DHT22;5908;51.354;7.458;2023-04-01T14:59:48;12.20;99.90
11704;DHT22;5908;51.354;7.458;2023-04-01T15:02:42;12.20;99.90
11704;DHT22;5908;51.354;7.458;2023-04-01T15:05:16;12.10;99.90
11704;DHT22;5908;51.354;7.458;2023-04-01T15:08:00;12.10;99.90
11704;DHT22;5908;51.354;7.458;2023-04-01T15:13:44;12.00;99.90
11704;DHT22;5908;51.354;7.458;2023-04-01T15:16:21;12.00;99.90
11704;DHT22;5908;51.354;7.458;2023-04-01T15:18:56;12.00;99.90
11704;DHT22;5908;51.354;7.458;2023-04-01T15:21:40;11.90;99.90
11704;DHT22;5908;51.354;7.458;2023-04-01T15:24:17;11.90;99.90
11704;DHT22;5908;51.354;7.458;2023-04-01T15:30:31;11.90;99.90
11704;DHT22;5908;51.354;7.458;2023-04-01T15:33:16;11.90;99.90
11704;DHT22;5908;51.354;7.458;2023-04-01T15:35:49;11.90;99.90
11704;DHT22;5908;51.354;7.458;2023-04-01T15:38:27;11.90;99.90
11704;DHT22;5908;51.354;7.458;2023-04-01T15:41:02;12.00;99.90
11704;DHT22;5908;51.354;7.458;2023-04-01T15:43:40;11.90;99.90
11704;DHT22;5908;51.354;7.458;2023-04-01T15:46:21;11.90;99.90
11704;DHT22;5908;51.354;7.458;2023-04-01T15:48:57;11.90;99.90
11704;DHT22;5908;51.354;7.458;2023-04-01T15:51:45;12.00;99.90
11704;DHT22;5908;51.354;7.458;2023-04-01T15:57:21;12.00;99.90
11704;DHT22;5908;51.354;7.458;2023-04-01T16:00:10;12.00;99.90
11704;DHT22;5908;51.354;7.458;2023-04-01T16:02:46;12.00;99.90
11704;DHT22;5908;51.354;7.458;2023-04-01T16:05:27;12.00;99.90
11704;DHT22;5908;51.354;7.458;2023-04-01T16:08:12;12.10;99.90
11704;DHT22;5908;51.354;7.458;2023-04-01T16:10:56;12.10;99.90
11704;DHT22;5908;51.354;7.458;2023-04-01T16:13:40;12.10;99.90
11704;DHT22;5908;51.354;7.458;2023-04-01T16:16:19;12.10;99.90
11704;DHT22;5908;51.354;7.458;2023-04-01T16:19:02;12.10;99.90
11704;DHT22;5908;51.354;7.458;2023-04-01T16:21:37;12.10;99.90
11704;DHT22;5908;51.354;7.458;2023-04-01T16:24:13;12.00;99.90
11704;DHT22;5908;51.354;7.458;2023-04-01T16:26:49;12.00;99.90
11704;DHT22;5908;51.354;7.458;2023-04-01T16:29:25;12.00;99.90
11704;DHT22;5908;51.354;7.458;2023-04-01T16:31:58;12.00;99.90
11704;DHT22;5908;51.354;7.458;2023-04-01T16:34:31;11.90;99.90
11704;DHT22;5908;51.354;7.458;2023-04-01T16:37:05;11.90;99.90
11704;DHT22;5908;51.354;7.458;2023-04-01T16:39:37;11.90;99.90
11704;DHT22;5908;51.354;7.458;2023-04-01T16:42:21;11.90;99.90
11704;DHT22;5908;51.354;7.458;2023-04-01T16:44:53;11.90;99.90
11704;DHT22;5908;51.354;7.458;2023-04-01T16:47:22;11.90;99.90
11704;DHT22;5908;51.354;7.458;2023-04-01T16:49:59;11.90;99.90
11704;DHT22;5908;51.354;7.458;2023-04-01T16:52:53;11.90;99.90
11704;DHT22;5908;51.354;7.458;2023-04-01T16:55:34;11.80;99.90
11704;DHT22;5908;51.354;7.458;2023-04-01T16:58:02;11.80;99.90
11704;DHT22;5908;51.354;7.458;2023-04-01T17:00:36;11.70;99.90
11704;DHT22;5908;51.354;7.458;2023-04-01T17:03:11;11.70;99.90
11704;DHT22;5908;51.354;7.458;2023-04-01T17:05:57;11.70;99.90
11704;DHT22;5908;51.354;7.458;2023-04-01T17:08:34;11.70;99.90
11704;DHT22;5908;51.354;7.458;2023-04-01T17:11:08;11.60;99.90
11704;DHT22;5908;51.354;7.458;2023-04-01T17:13:41;11.50;99.90
11704;DHT22;5908;51.354;7.458;2023-04-01T17:16:34;11.50;99.90
11704;DHT22;5908;51.354;7.458;2023-04-01T17:19:12;11.40;99.90
11704;DHT22;5908;51.354;7.458;2023-04-01T17:21:53;11.40;99.90
11704;DHT22;5908;51.354;7.458;2023-04-01T17:24:37;11.40;99.90
11704;DHT22;5908;51.354;7.458;2023-04-01T17:27:17;11.40;99.90
11704;DHT22;5908;51.354;7.458;2023-04-01T17:30:11;11.50;99.90
11704;DHT22;5908;51.354;7.458;2023-04-01T17:32:52;11.40;99.90
11704;DHT22;5908;51.354;7.458;2023-04-01T17:35:27;11.40;99.90
11704;DHT22;5908;51.354;7.458;2023-04-01T17:38:07;11.30;99.90
11704;DHT22;5908;51.354;7.458;2023-04-01T17:40:44;11.40;99.90
11704;DHT22;5908;51.354;7.458;2023-04-01T17:43:24;11.30;99.90
11704;DHT22;5908;51.354;7.458;2023-04-01T17:45:54;11.30;99.90
11704;DHT22;5908;51.354;7.458;2023-04-01T17:48:32;11.30;99.90
11704;DHT22;5908;51.354;7.458;2023-04-01T17:51:12;11.30;99.90
11704;DHT22;5908;51.354;7.458;2023-04-01T17:53:54;11.30;99.90
11704;DHT22;5908;51.354;7.458;2023-04-01T17:56:32;11.20;99.90
11704;DHT22;5908;51.354;7.458;2023-04-01T17:59:09;11.20;99.90